Time;durP1;ratioP1;P1;durP2;ratioP2;P2;SDS_P1;SDS_P2;PMS_P1;PMS_P2;Temp;Humidity;BMP_temperature;BMP_pressure;BME280_temperature;BME280_humidity;BME280_pressure;Samples;Min_cycle;Max_cycle;Signal;HPM_P1;HPM_P2
2022/09/14 00:01:43;;;;;;;9.50;3.50;;;;;;;16.14;55.14;98153.77;106103;1274;95179;-63
2022/09/14 00:04:15;;;;;;;5.90;3.30;;;;;;;16.13;55.23;98152.06;105961;1274;109850;-64
2022/09/14 00:06:44;;;;;;;7.40;3.40;;;;;;;16.12;55.20;98145.35;105993;1274;95181;-65
2022/09/14 00:09:18;;;;;;;9.00;3.60;;;;;;;16.12;55.24;98144.65;105972;1274;107687;-66
2022/09/14 00:11:48;;;;;;;7.70;3.40;;;;;;;16.13;55.27;98142.02;105978;1274;97868;-63
2022/09/14 00:14:18;;;;;;;6.10;3.30;;;;;;;16.13;55.34;98135.97;106137;1274;97960;-64
2022/09/14 00:16:46;;;;;;;8.30;3.40;;;;;;;16.14;55.34;98136.56;106204;1274;111113;-62
2022/09/14 00:19:26;;;;;;;9.70;3.70;;;;;;;16.15;55.26;98136.23;106164;1274;97862;-66
2022/09/14 00:21:56;;;;;;;6.20;3.50;;;;;;;16.14;55.39;98133.45;106100;1274;107725;-64
2022/09/14 00:24:29;;;;;;;9.80;3.30;;;;;;;16.15;55.47;98133.23;106063;1274;95293;-64
2022/09/14 00:26:58;;;;;;;8.80;3.80;;;;;;;16.14;55.52;98134.26;106029;1274;97872;-65
2022/09/14 00:29:26;;;;;;;7.00;3.30;;;;;;;16.12;55.39;98134.46;106108;1274;111979;-64
2022/09/14 00:31:54;;;;;;;6.80;3.40;;;;;;;16.11;55.33;98134.19;106069;1275;97861;-64
2022/09/14 00:34:23;;;;;;;6.10;3.40;;;;;;;16.09;55.42;98130.29;106027;1275;108813;-63
2022/09/14 00:36:51;;;;;;;6.90;3.70;;;;;;;16.08;55.48;98131.83;106056;1274;97968;-64
2022/09/14 00:39:26;;;;;;;9.30;3.20;;;;;;;16.07;55.53;98134.95;106054;1274;97849;-65
2022/09/14 00:41:55;;;;;;;7.60;3.60;;;;;;;16.07;55.43;98135.52;105951;1275;113736;-65
2022/09/14 00:44:23;;;;;;;7.10;3.40;;;;;;;16.07;55.54;98131.06;105991;1274;95365;-64
2022/09/14 00:46:54;;;;;;;6.50;3.30;;;;;;;16.07;55.66;98132.47;106048;1274;108093;-66
2022/09/14 00:49:48;;;;;;;6.30;3.40;;;;;;;16.07;55.44;98130.92;106040;1274;97940;-65
2022/09/14 00:52:25;;;;;;;6.80;3.40;;;;;;;16.05;55.53;98130.86;105962;1275;97859;-65
2022/09/14 00:54:57;;;;;;;6.30;3.30;;;;;;;16.04;55.65;98128.88;105949;1275;112762;-65
2022/09/14 00:57:28;;;;;;;7.40;3.80;;;;;;;16.04;55.63;98122.41;106089;1275;97967;-66
2022/09/14 00:59:58;;;;;;;5.40;3.20;;;;;;;16.05;55.66;98118.79;105981;1274;107813;-64
2022/09/14 01:02:28;;;;;;;7.40;3.80;;;;;;;16.06;55.67;98119.05;105940;1274;96581;-65
2022/09/14 01:04:56;;;;;;;6.80;3.40;;;;;;;16.06;55.72;98118.63;106102;1274;97846;-65
2022/09/14 01:07:51;;;;;;;8.60;3.70;;;;;;;16.06;55.67;98117.88;106131;1274;112022;-64
2022/09/14 01:10:28;;;;;;;7.90;3.80;;;;;;;16.05;55.76;98109.23;106091;1275;98624;-63
2022/09/14 01:13:16;;;;;;;7.20;3.40;;;;;;;16.06;55.68;98106.86;105972;1274;108634;-64
2022/09/14 01:16:17;;;;;;;9.20;3.50;;;;;;;16.06;55.89;98104.27;105973;1275;97932;-63
2022/09/14 01:18:57;;;;;;;7.50;3.20;;;;;;;16.06;55.83;98100.02;105932;1277;97912;-65
2022/09/14 01:21:37;;;;;;;8.40;3.80;;;;;;;16.07;55.82;98100.14;106002;1274;111870;-65
2022/09/14 01:24:20;;;;;;;12.00;4.70;;;;;;;16.07;55.87;98101.40;106060;1274;97898;-63
2022/09/14 01:26:58;;;;;;;6.60;3.60;;;;;;;16.07;55.80;98103.70;106158;1274;107453;-64
2022/09/14 01:29:35;;;;;;;7.70;3.40;;;;;;;16.06;55.83;98101.82;106125;1274;95266;-64
2022/09/14 01:32:11;;;;;;;8.40;3.50;;;;;;;16.06;55.90;98096.27;105978;1275;97860;-64
2022/09/14 01:34:48;;;;;;;6.60;3.30;;;;;;;16.06;55.88;98100.35;106080;1274;111452;-65
2022/09/14 01:37:28;;;;;;;8.80;3.20;;;;;;;16.07;55.90;98104.40;106147;1274;97879;-62
2022/09/14 01:40:33;;;;;;;7.00;3.70;;;;;;;16.07;55.90;98103.86;106160;1274;108363;-64
2022/09/14 01:43:25;;;;;;;5.90;3.20;;;;;;;16.07;55.96;98096.02;106024;1274;95281;-64
2022/09/14 01:45:59;;;;;;;5.90;3.20;;;;;;;16.08;55.86;98100.05;105964;1274;97869;-64
2022/09/14 01:48:42;;;;;;;6.10;3.60;;;;;;;16.07;56.08;98092.55;106105;1274;111207;-64
2022/09/14 01:51:19;;;;;;;6.80;3.20;;;;;;;16.07;55.98;98104.41;105993;1274;97825;-65
2022/09/14 01:53:52;;;;;;;10.50;3.80;;;;;;;16.05;56.04;98100.86;105946;1274;106904;-64
2022/09/14 01:56:42;;;;;;;6.00;3.10;;;;;;;16.05;56.00;98101.05;106139;1274;97951;-65
2022/09/14 01:59:40;;;;;;;8.10;3.50;;;;;;;16.05;56.20;98097.33;106135;1274;97866;-64
2022/09/14 02:02:27;;;;;;;7.80;3.40;;;;;;;16.03;56.05;98095.48;106024;1274;111513;-60
2022/09/14 02:05:26;;;;;;;5.20;3.30;;;;;;;16.02;56.27;98089.77;105984;1275;97924;-61
2022/09/14 02:07:55;;;;;;;6.60;3.60;;;;;;;16.02;56.15;98089.22;105855;1276;108897;-61
2022/09/14 02:10:24;;;;;;;5.60;3.40;;;;;;;16.03;56.27;98085.94;106010;1274;96461;-59
2022/09/14 02:12:54;;;;;;;7.50;3.40;;;;;;;16.02;56.22;98084.20;106069;1274;97842;-64
2022/09/14 02:15:25;;;;;;;9.50;3.80;;;;;;;16.01;56.24;98081.98;106098;1274;112022;-61
2022/09/14 02:17:53;;;;;;;6.30;3.20;;;;;;;16.01;56.22;98080.77;106195;1274;98034;-63
2022/09/14 02:20:46;;;;;;;6.70;3.40;;;;;;;16.01;56.22;98075.98;106085;1277;109435;-60
2022/09/14 02:23:15;;;;;;;5.60;3.60;;;;;;;16.00;56.23;98077.16;106103;1274;97972;-60
2022/09/14 02:25:45;;;;;;;7.60;3.70;;;;;;;15.99;56.34;98082.98;106101;1275;98062;-60
2022/09/14 02:28:15;;;;;;;5.70;3.40;;;;;;;15.98;56.28;98078.04;106105;1275;111461;-61
2022/09/14 02:31:04;;;;;;;8.80;3.40;;;;;;;15.97;56.21;98077.66;105980;1274;97927;-61
2022/09/14 02:33:35;;;;;;;7.30;3.60;;;;;;;15.95;56.45;98077.34;106014;1274;108396;-62
2022/09/14 02:36:31;;;;;;;6.80;3.60;;;;;;;15.93;56.34;98081.02;106057;1274;97882;-63
2022/09/14 02:39:39;;;;;;;8.40;3.40;;;;;;;15.92;56.47;98077.36;106115;1274;97969;-62
2022/09/14 02:42:24;;;;;;;8.90;4.00;;;;;;;15.91;56.38;98075.39;106005;1275;112064;-61
2022/09/14 02:45:16;;;;;;;6.60;3.50;;;;;;;15.89;56.30;98071.31;106067;1274;97876;-64
2022/09/14 02:48:09;;;;;;;5.90;3.40;;;;;;;15.87;56.40;98073.13;105960;1274;107288;-62
2022/09/14 02:51:05;;;;;;;6.20;3.40;;;;;;;15.85;56.35;98071.23;105940;1276;96389;-64
2022/09/14 02:53:43;;;;;;;8.60;3.80;;;;;;;15.85;56.55;98073.91;105965;1274;95250;-62
2022/09/14 02:56:12;;;;;;;9.30;3.70;;;;;;;15.82;56.59;98069.90;106182;1274;112024;-64
2022/09/14 02:58:43;;;;;;;7.70;3.70;;;;;;;15.82;56.44;98063.35;106160;1274;97950;-61
2022/09/14 03:01:18;;;;;;;6.00;3.70;;;;;;;15.82;56.66;98059.19;106166;1274;108437;-63
2022/09/14 03:03:46;;;;;;;6.80;3.50;;;;;;;15.83;56.62;98058.08;106163;1274;97972;-62
2022/09/14 03:06:15;;;;;;;7.10;3.80;;;;;;;15.82;56.64;98054.80;106173;1274;98014;-64
2022/09/14 03:08:44;;;;;;;10.20;4.00;;;;;;;15.82;56.58;98053.30;106159;1274;112079;-63
2022/09/14 03:11:12;;;;;;;9.80;4.10;;;;;;;15.83;56.62;98053.06;106096;1274;97959;-65
2022/09/14 03:13:40;;;;;;;6.30;3.70;;;;;;;15.82;56.68;98048.20;106191;1274;108267;-62
2022/09/14 03:16:13;;;;;;;10.20;3.50;;;;;;;15.79;56.57;98045.21;106170;1274;96566;-62
2022/09/14 03:18:42;;;;;;;;;;;;;;;15.79;56.63;98042.23;106085;1276;97855;-62
2022/09/14 03:21:14;;;;;;;10.50;4.00;;;;;;;15.75;56.69;98041.73;105972;1274;111927;-62
2022/09/14 03:23:51;;;;;;;9.00;3.80;;;;;;;15.73;56.69;98040.57;106006;1274;97988;-62
2022/09/14 03:26:22;;;;;;;8.40;3.80;;;;;;;15.71;56.77;98042.73;106067;1274;108377;-63
2022/09/14 03:28:56;;;;;;;7.50;3.50;;;;;;;15.69;56.76;98046.46;106655;1274;97870;-65
2022/09/14 03:31:25;;;;;;;9.60;4.10;;;;;;;15.68;56.76;98049.39;106096;1275;97987;-63
2022/09/14 03:33:57;;;;;;;9.20;3.40;;;;;;;15.64;56.79;98052.95;106158;1274;112187;-63
2022/09/14 03:36:28;;;;;;;9.90;4.00;;;;;;;15.62;56.77;98055.48;106070;1274;97634;-63
2022/09/14 03:39:00;;;;;;;7.00;3.50;;;;;;;15.61;56.85;98053.42;106081;1274;107714;-62
2022/09/14 03:41:29;;;;;;;7.00;3.30;;;;;;;15.60;56.89;98057.52;106053;1274;97950;-63
2022/09/14 03:43:58;;;;;;;7.20;3.70;;;;;;;15.58;56.96;98064.30;106051;1274;97938;-65
2022/09/14 03:46:25;;;;;;;10.80;4.10;;;;;;;15.57;57.09;98062.47;106041;1274;111767;-65
2022/09/14 03:48:55;;;;;;;7.80;3.80;;;;;;;15.56;57.05;98064.70;106119;1275;95654;-65
2022/09/14 03:51:23;;;;;;;8.10;4.20;;;;;;;15.54;56.94;98065.35;106141;1274;107714;-65
2022/09/14 03:53:52;;;;;;;8.00;3.30;;;;;;;15.51;57.08;98062.46;104759;1275;1833857;-65
2022/09/14 03:56:22;;;;;;;11.00;4.00;;;;;;;15.50;57.15;98066.25;106120;1274;97948;-64
2022/09/14 03:58:51;;;;;;;6.90;3.90;;;;;;;15.49;57.16;98068.89;106064;1274;109946;-64
2022/09/14 04:01:21;;;;;;;8.10;3.70;;;;;;;15.48;57.16;98062.55;106083;1274;98002;-66
2022/09/14 04:03:51;;;;;;;10.70;4.10;;;;;;;15.47;57.19;98061.58;106109;1275;108303;-66
2022/09/14 04:06:19;;;;;;;5.40;3.70;;;;;;;15.46;57.32;98060.10;106114;1274;95747;-65
2022/09/14 04:08:48;;;;;;;8.70;3.70;;;;;;;15.45;57.27;98059.51;106090;1274;97941;-65
2022/09/14 04:11:24;;;;;;;8.50;3.90;;;;;;;15.44;57.27;98054.27;106060;1274;112016;-65
2022/09/14 04:13:52;;;;;;;5.50;3.60;;;;;;;15.42;57.22;98054.44;106069;1274;98646;-66
2022/09/14 04:16:21;;;;;;;9.00;4.10;;;;;;;15.40;57.25;98048.91;105998;1274;108442;-65
2022/09/14 04:18:49;;;;;;;10.80;4.30;;;;;;;15.40;57.33;98051.85;106075;1274;97888;-63
2022/09/14 04:21:21;;;;;;;13.40;4.30;;;;;;;15.38;57.38;98050.62;106072;1274;97887;-66
2022/09/14 04:23:56;;;;;;;8.60;4.20;;;;;;;15.37;57.46;98048.44;106190;1273;110376;-64
2022/09/14 04:26:46;;;;;;;11.00;4.30;;;;;;;15.35;57.45;98052.33;106025;1273;96406;-64
2022/09/14 04:29:14;;;;;;;10.50;4.10;;;;;;;15.33;57.46;98053.83;106048;1274;108298;-63
2022/09/14 04:31:42;;;;;;;9.80;4.50;;;;;;;15.32;57.44;98050.55;105969;1274;97965;-64
2022/09/14 04:34:13;;;;;;;10.20;4.20;;;;;;;15.31;57.58;98055.40;106033;1274;97960;-64
2022/09/14 04:36:41;;;;;;;9.20;3.70;;;;;;;15.32;57.66;98055.73;106072;1274;110963;-61
2022/09/14 04:39:12;;;;;;;10.00;4.50;;;;;;;15.30;57.63;98055.93;106095;1274;95228;-64
2022/09/14 04:41:41;;;;;;;8.80;4.40;;;;;;;15.27;57.59;98056.41;106094;1274;107115;-65
2022/09/14 04:44:11;;;;;;;9.50;4.10;;;;;;;15.27;57.66;98052.13;106145;1274;97865;-65
2022/09/14 04:46:41;;;;;;;9.20;3.80;;;;;;;15.29;57.75;98052.69;106097;1274;97952;-67
2022/09/14 04:49:17;;;;;;;7.20;3.80;;;;;;;15.30;57.74;98054.63;106112;1274;111027;-66
2022/09/14 04:51:47;;;;;;;8.90;4.10;;;;;;;15.30;57.77;98053.94;106002;1274;95191;-65
2022/09/14 04:54:17;;;;;;;10.70;4.30;;;;;;;15.30;57.73;98051.95;105992;1274;107248;-66
2022/09/14 04:56:45;;;;;;;7.60;4.00;;;;;;;15.32;57.84;98051.71;106017;1274;97857;-66
2022/09/14 04:59:15;;;;;;;6.60;3.80;;;;;;;15.35;57.92;98056.50;105953;1274;98279;-65
2022/09/14 05:01:46;;;;;;;7.20;3.90;;;;;;;15.36;57.86;98054.60;105984;1274;112036;-66
2022/09/14 05:04:17;;;;;;;9.60;4.30;;;;;;;15.37;57.90;98057.48;106067;1274;97960;-66
2022/09/14 05:06:45;;;;;;;9.00;4.50;;;;;;;15.38;58.01;98053.67;105889;1274;108411;-64
2022/09/14 05:09:17;;;;;;;8.10;4.00;;;;;;;15.39;57.95;98054.06;107292;1274;97851;-64
2022/09/14 05:11:45;;;;;;;9.40;4.00;;;;;;;15.41;57.95;98049.55;106000;1274;97948;-63
2022/09/14 05:14:15;;;;;;;8.20;3.80;;;;;;;15.43;58.04;98050.19;106090;1274;112085;-65
2022/09/14 05:16:44;;;;;;;10.50;3.90;;;;;;;15.45;57.84;98052.13;106094;1274;97974;-63
2022/09/14 05:19:17;;;;;;;13.00;4.60;;;;;;;15.49;58.06;98057.84;106089;1274;108500;-65
2022/09/14 05:21:46;;;;;;;9.80;4.00;;;;;;;15.52;57.98;98051.44;106096;1274;98059;-64
2022/09/14 05:24:17;;;;;;;10.40;3.80;;;;;;;15.55;57.97;98059.41;106023;1274;97836;-65
2022/09/14 05:26:52;;;;;;;9.70;4.00;;;;;;;15.60;58.09;98062.00;105967;1274;112134;-65
2022/09/14 05:29:28;;;;;;;7.50;3.70;;;;;;;15.64;58.04;98059.05;105982;1274;97907;-64
2022/09/14 05:31:57;;;;;;;9.10;3.90;;;;;;;15.68;58.12;98057.50;106051;1274;108348;-65
2022/09/14 05:34:26;;;;;;;6.80;3.70;;;;;;;15.73;58.08;98054.64;106036;1274;97941;-64
2022/09/14 05:36:54;;;;;;;11.90;4.10;;;;;;;15.78;58.16;98050.02;106057;1275;97885;-64
2022/09/14 05:39:24;;;;;;;8.10;3.90;;;;;;;15.86;58.17;98049.91;106086;1274;112135;-64
2022/09/14 05:41:52;;;;;;;8.00;3.20;;;;;;;15.93;58.11;98047.13;106098;1274;97879;-64
2022/09/14 05:44:21;;;;;;;10.70;4.00;;;;;;;16.00;58.29;98041.39;106130;1274;108356;-64
2022/09/14 05:46:50;;;;;;;5.90;3.80;;;;;;;16.04;58.33;98036.42;106109;1274;97995;-64
2022/09/14 05:49:19;;;;;;;9.30;3.60;;;;;;;16.09;58.35;98036.27;106120;1274;97896;-65
2022/09/14 05:51:47;;;;;;;8.20;3.90;;;;;;;16.15;58.33;98035.06;106024;1274;112069;-65
2022/09/14 05:54:16;;;;;;;7.10;3.80;;;;;;;16.19;58.25;98034.90;106158;1274;97965;-66
2022/09/14 05:56:44;;;;;;;8.40;4.20;;;;;;;16.25;58.27;98032.35;106082;1274;108338;-64
2022/09/14 05:59:13;;;;;;;10.10;4.20;;;;;;;16.28;58.18;98035.53;106132;1274;97882;-64
2022/09/14 06:01:41;;;;;;;9.00;3.80;;;;;;;16.31;58.32;98037.02;106091;1274;97742;-66
2022/09/14 06:04:11;;;;;;;6.20;3.70;;;;;;;16.34;58.15;98036.46;106140;1274;110836;-66
2022/09/14 06:06:40;;;;;;;7.50;4.00;;;;;;;16.37;58.38;98031.13;106062;1274;98477;-66
2022/09/14 06:09:23;;;;;;;6.90;3.70;;;;;;;16.41;58.22;98032.89;106086;1274;108635;-66
2022/09/14 06:11:51;;;;;;;6.80;3.70;;;;;;;16.46;58.15;98032.13;106020;1274;97866;-65
2022/09/14 06:14:20;;;;;;;11.80;4.30;;;;;;;16.50;58.29;98037.13;106096;1274;98557;-65
2022/09/14 06:16:49;;;;;;;10.70;3.60;;;;;;;16.56;58.35;98042.78;106078;1274;111994;-65
2022/09/14 06:19:17;;;;;;;6.30;3.90;;;;;;;16.60;58.30;98042.90;106124;1274;95380;-64
2022/09/14 06:21:46;;;;;;;8.20;3.70;;;;;;;16.63;58.28;98040.23;106120;1274;107394;-64
2022/09/14 06:24:14;;;;;;;7.30;3.50;;;;;;;16.67;58.23;98041.73;106050;1274;98576;-64
2022/09/14 06:26:43;;;;;;;10.20;4.00;;;;;;;16.70;58.28;98042.31;106054;1274;97882;-64
2022/09/14 06:29:11;;;;;;;7.60;3.60;;;;;;;16.71;58.24;98042.40;106076;1274;112219;-64
2022/09/14 06:31:39;;;;;;;8.60;3.70;;;;;;;16.71;58.23;98043.20;105997;1274;97968;-64
2022/09/14 06:34:08;;;;;;;9.80;3.80;;;;;;;16.75;58.17;98036.00;105983;1274;107109;-64
2022/09/14 06:36:36;;;;;;;7.50;3.60;;;;;;;16.79;58.04;98040.63;106068;1274;97910;-67
2022/09/14 06:39:04;;;;;;;8.10;3.70;;;;;;;16.86;58.12;98050.81;106040;1274;95294;-65
2022/09/14 06:41:33;;;;;;;7.80;3.60;;;;;;;16.92;58.18;98049.60;106093;1274;111852;-65
2022/09/14 06:44:02;;;;;;;9.10;4.40;;;;;;;16.93;58.19;98045.15;106030;1274;97891;-63
2022/09/14 06:46:33;;;;;;;14.40;5.20;;;;;;;16.95;58.29;98048.54;106135;1274;108388;-65
2022/09/14 06:49:12;;;;;;;14.90;5.40;;;;;;;16.98;58.05;98042.67;106097;1274;96919;-64
2022/09/14 06:51:48;;;;;;;15.30;5.60;;;;;;;17.04;58.18;98045.09;106137;1274;97822;-64
2022/09/14 06:54:17;;;;;;;13.20;4.70;;;;;;;17.09;58.23;98047.81;106061;1274;111436;-64
2022/09/14 06:56:46;;;;;;;9.50;4.10;;;;;;;17.17;58.18;98050.02;105997;1275;95418;-64
2022/09/14 06:59:16;;;;;;;7.70;3.50;;;;;;;17.24;58.16;98052.20;106087;1274;108443;-65
2022/09/14 07:01:48;;;;;;;9.10;3.70;;;;;;;17.31;58.16;98055.58;106093;1274;98021;-65
2022/09/14 07:04:18;;;;;;;6.40;3.40;;;;;;;17.36;58.37;98046.53;106105;1274;97857;-65
2022/09/14 07:06:48;;;;;;;10.60;4.20;;;;;;;17.40;58.11;98048.24;106115;1274;111991;-66
2022/09/14 07:09:19;;;;;;;10.60;3.80;;;;;;;17.43;58.22;98049.46;106093;1274;97993;-61
2022/09/14 07:11:48;;;;;;;7.60;4.00;;;;;;;17.50;58.28;98050.62;106043;1274;108444;-66
2022/09/14 07:14:18;;;;;;;14.70;4.40;;;;;;;17.56;58.26;98048.88;106110;1274;95285;-66
2022/09/14 07:16:48;;;;;;;11.80;4.50;;;;;;;17.65;58.15;98047.54;106109;1274;97861;-65
2022/09/14 07:19:16;;;;;;;8.00;3.70;;;;;;;17.74;58.16;98056.45;106106;1274;111981;-64
2022/09/14 07:21:47;;;;;;;9.10;4.10;;;;;;;17.86;57.98;98056.67;106165;1274;95367;-65
2022/09/14 07:24:16;;;;;;;10.20;3.50;;;;;;;17.99;58.02;98054.58;106127;1274;108744;-64
2022/09/14 07:26:45;;;;;;;7.90;4.00;;;;;;;18.14;57.96;98056.37;106139;1274;95295;-63
2022/09/14 07:29:18;;;;;;;11.30;3.80;;;;;;;18.28;58.08;98052.38;106041;1274;97861;-63
2022/09/14 07:31:52;;;;;;;11.80;3.90;;;;;;;18.57;57.81;98053.17;105983;1274;111222;-64
2022/09/14 07:34:22;;;;;;;8.30;4.00;;;;;;;19.18;57.33;98057.27;106020;1274;97969;-61
2022/09/14 07:36:52;;;;;;;12.30;4.30;;;;;;;20.00;56.77;98050.06;105980;1274;108395;-65
2022/09/14 07:39:20;;;;;;;8.00;3.80;;;;;;;20.90;56.77;98051.19;105985;1274;98025;-64
2022/09/14 07:41:49;;;;;;;12.10;4.10;;;;;;;21.54;56.99;98052.81;106006;1274;97884;-65
2022/09/14 07:44:17;;;;;;;12.60;4.10;;;;;;;21.96;57.01;98052.98;106005;1274;111762;-66
2022/09/14 07:46:47;;;;;;;7.60;3.60;;;;;;;22.19;57.22;98049.73;106170;1274;97940;-64
2022/09/14 07:49:17;;;;;;;11.00;3.70;;;;;;;22.44;57.11;98050.23;106148;1274;108364;-63
2022/09/14 07:51:45;;;;;;;10.00;3.70;;;;;;;22.80;56.91;98050.01;106198;1274;97932;-65
2022/09/14 07:54:17;;;;;;;8.20;3.40;;;;;;;22.94;56.99;98048.88;106166;1274;97823;-64
2022/09/14 07:56:48;;;;;;;8.90;3.60;;;;;;;22.87;56.79;98049.42;106141;1274;111070;-65
2022/09/14 07:59:16;;;;;;;6.00;3.40;;;;;;;22.90;56.73;98048.83;106134;1274;95342;-65
2022/09/14 08:02:10;;;;;;;7.10;3.80;;;;;;;22.82;56.71;98051.88;106157;1274;108329;-64
2022/09/14 08:04:38;;;;;;;8.00;3.50;;;;;;;22.78;56.53;98050.81;106162;1274;97975;-65
2022/09/14 08:07:09;;;;;;;9.30;4.10;;;;;;;22.68;56.57;98055.06;106083;1274;97837;-64
2022/09/14 08:09:38;;;;;;;7.60;4.40;;;;;;;22.70;56.17;98056.98;106010;1274;112002;-65
2022/09/14 08:12:07;;;;;;;7.80;4.00;;;;;;;22.73;55.95;98054.53;106005;1274;97844;-65
2022/09/14 08:14:36;;;;;;;6.60;3.90;;;;;;;22.70;55.98;98055.69;106000;1274;108534;-65
2022/09/14 08:17:05;;;;;;;7.50;3.30;;;;;;;22.72;55.82;98059.27;105995;1274;95303;-66
2022/09/14 08:19:34;;;;;;;8.50;3.90;;;;;;;22.70;55.82;98054.73;106031;1274;97931;-65
2022/09/14 08:22:06;;;;;;;8.40;3.80;;;;;;;22.67;55.83;98057.57;105979;1274;112077;-65
2022/09/14 08:24:34;;;;;;;6.10;3.60;;;;;;;22.65;55.39;98057.16;106138;1274;96303;-64
2022/09/14 08:27:02;;;;;;;9.00;4.20;;;;;;;22.62;55.49;98061.27;105977;1276;107256;-67
2022/09/14 08:29:31;;;;;;;10.20;3.80;;;;;;;22.66;55.24;98060.23;105994;1274;95307;-66
2022/09/14 08:32:00;;;;;;;9.70;3.30;;;;;;;22.82;55.17;98059.84;106012;1274;97940;-65
2022/09/14 08:34:30;;;;;;;11.20;3.90;;;;;;;23.03;54.86;98054.68;106066;1274;112005;-64
2022/09/14 08:36:59;;;;;;;10.40;4.00;;;;;;;23.18;55.09;98055.30;106147;1274;98109;-65
2022/09/14 08:39:27;;;;;;;6.70;3.70;;;;;;;23.27;54.90;98046.84;106056;1274;108398;-66
2022/09/14 08:41:59;;;;;;;6.40;3.70;;;;;;;23.37;54.89;98043.98;105967;1274;95266;-64
2022/09/14 08:44:37;;;;;;;10.20;4.00;;;;;;;23.55;54.52;98041.25;106036;1274;97943;-66
2022/09/14 08:47:08;;;;;;;9.90;3.80;;;;;;;23.65;54.49;98038.75;106053;1274;112023;-65
2022/09/14 08:50:04;;;;;;;12.60;4.20;;;;;;;23.79;54.34;98042.98;106047;1274;97891;-65
2022/09/14 08:52:42;;;;;;;6.70;3.50;;;;;;;24.09;54.22;98039.54;106033;1274;107804;-63
2022/09/14 08:55:23;;;;;;;7.70;3.70;;;;;;;24.35;54.03;98042.66;105975;1274;95305;-68
2022/09/14 08:57:56;;;;;;;11.20;3.70;;;;;;;24.59;53.95;98045.51;106028;1274;97856;-65
2022/09/14 09:00:38;;;;;;;9.80;4.70;;;;;;;24.79;53.83;98044.52;106004;1274;111993;-64
2022/09/14 09:03:28;;;;;;;13.30;4.10;;;;;;;24.98;53.64;98036.34;106141;1273;97845;-65
2022/09/14 09:06:13;;;;;;;8.30;3.90;;;;;;;25.12;53.29;98035.79;106105;1274;107871;-65
2022/09/14 09:08:53;;;;;;;6.30;3.80;;;;;;;25.30;53.07;98033.42;106126;1274;97969;-65
2022/09/14 09:11:25;;;;;;;6.50;3.90;;;;;;;25.41;53.13;98025.65;106050;1274;95281;-65
2022/09/14 09:13:55;;;;;;;10.70;3.80;;;;;;;25.34;53.13;98020.89;106001;1276;111159;-65
2022/09/14 09:16:27;;;;;;;10.30;3.60;;;;;;;25.20;52.93;98018.52;106042;1274;97858;-65
2022/09/14 09:19:06;;;;;;;8.00;3.60;;;;;;;25.11;52.81;98016.93;106029;1274;107859;-65
2022/09/14 09:21:46;;;;;;;7.00;3.60;;;;;;;25.02;52.54;98022.42;106024;1274;97981;-66
2022/09/14 09:24:27;;;;;;;10.70;3.90;;;;;;;24.93;52.43;98021.13;106081;1274;97882;-65
2022/09/14 09:26:55;;;;;;;7.70;3.80;;;;;;;24.83;52.25;98019.13;106135;1274;112554;-66
2022/09/14 09:29:24;;;;;;;9.00;4.00;;;;;;;24.71;52.15;98019.07;106084;1274;95499;-66
2022/09/14 09:31:57;;;;;;;10.20;4.00;;;;;;;24.59;52.00;98017.40;106146;1274;108322;-64
2022/09/14 09:34:30;;;;;;;8.00;4.30;;;;;;;24.49;51.88;98013.22;106142;1274;97886;-65
2022/09/14 09:36:59;;;;;;;7.60;3.70;;;;;;;24.51;51.76;98012.69;106181;1274;97987;-66
2022/09/14 09:39:33;;;;;;;5.70;3.90;;;;;;;24.63;51.74;98010.62;106189;1274;112518;-66
2022/09/14 09:42:11;;;;;;;7.90;4.00;;;;;;;24.77;51.64;98007.08;106153;1274;97835;-66
2022/09/14 09:44:59;;;;;;;9.70;3.60;;;;;;;24.86;51.47;98011.86;106143;1274;108368;-65
2022/09/14 09:47:39;;;;;;;10.50;3.80;;;;;;;24.89;51.28;98014.81;106160;1274;97981;-65
2022/09/14 09:50:14;;;;;;;9.20;4.10;;;;;;;24.93;51.45;98011.41;106144;1274;97804;-65
2022/09/14 09:52:54;;;;;;;9.40;4.00;;;;;;;24.92;51.22;98012.39;106127;1274;112069;-64
2022/09/14 09:55:46;;;;;;;8.60;3.80;;;;;;;24.92;51.27;98014.27;106183;1274;97982;-64
2022/09/14 09:58:35;;;;;;;8.70;4.30;;;;;;;24.88;51.01;98019.27;106083;1274;108430;-66
2022/09/14 10:01:17;;;;;;;13.40;5.20;;;;;;;24.72;50.79;98016.75;106002;1274;97846;-67
2022/09/14 10:04:05;;;;;;;9.90;4.80;;;;;;;24.55;50.66;98017.45;106133;1274;95236;-66
2022/09/14 10:06:43;;;;;;;10.20;4.30;;;;;;;24.44;50.51;98019.06;106156;1274;112092;-65
2022/09/14 10:09:20;;;;;;;7.70;3.80;;;;;;;24.35;50.48;98015.70;106097;1274;98805;-67
2022/09/14 10:12:03;;;;;;;10.20;4.50;;;;;;;24.30;50.41;98013.36;106002;1273;106731;-67
2022/09/14 10:14:35;;;;;;;8.00;3.80;;;;;;;24.21;50.15;98009.88;106018;1274;97902;-67
2022/09/14 10:17:17;;;;;;;11.60;4.80;;;;;;;24.11;50.21;98013.58;106109;1274;95272;-65
2022/09/14 10:19:52;;;;;;;10.60;4.20;;;;;;;24.04;50.18;98016.65;106117;1274;111321;-64
2022/09/14 10:22:43;;;;;;;10.70;3.60;;;;;;;23.97;50.14;98016.97;106155;1274;97860;-65
2022/09/14 10:25:14;;;;;;;8.70;3.70;;;;;;;23.87;50.02;98016.09;106111;1274;108582;-64
2022/09/14 10:27:54;;;;;;;7.40;4.20;;;;;;;23.80;49.91;98014.23;106107;1274;95553;-65
2022/09/14 10:30:33;;;;;;;8.80;4.00;;;;;;;23.59;49.48;98013.94;106116;1274;97879;-64
2022/09/14 10:33:10;;;;;;;7.00;3.70;;;;;;;23.37;49.72;98016.30;106118;1274;111503;-65
2022/09/14 10:35:55;;;;;;;9.20;4.00;;;;;;;23.33;49.75;98009.23;106118;1274;97471;-66
2022/09/14 10:38:42;;;;;;;12.00;4.50;;;;;;;23.35;49.71;98012.23;106101;1274;107832;-66
2022/09/14 10:41:34;;;;;;;9.00;3.90;;;;;;;23.34;49.81;98014.83;106010;1274;97380;-66
2022/09/14 10:44:24;;;;;;;7.70;3.70;;;;;;;23.30;49.59;98012.42;106152;1274;97868;-65
2022/09/14 10:47:09;;;;;;;9.80;4.30;;;;;;;23.27;49.64;98009.98;106190;1274;112108;-65
2022/09/14 10:49:56;;;;;;;7.30;3.80;;;;;;;23.32;49.51;98011.30;106142;1274;97979;-65
2022/09/14 10:52:48;;;;;;;6.90;4.00;;;;;;;23.39;49.51;98010.49;106120;1274;108536;-65
2022/09/14 10:55:42;;;;;;;9.50;4.00;;;;;;;23.48;49.53;98009.28;106092;1274;97941;-64
2022/09/14 10:58:36;;;;;;;10.30;4.20;;;;;;;23.58;49.27;98006.70;106117;1274;97969;-64
2022/09/14 11:01:25;;;;;;;10.30;4.50;;;;;;;23.65;49.51;98007.42;106118;1274;111560;-64
2022/09/14 11:04:18;;;;;;;9.80;4.20;;;;;;;23.69;49.33;98003.26;106122;1274;96578;-66
2022/09/14 11:07:08;;;;;;;10.40;4.70;;;;;;;23.69;49.10;98000.37;106107;1274;108173;-67
2022/09/14 11:09:56;;;;;;;9.70;4.10;;;;;;;23.65;49.12;98002.58;106136;1274;97920;-65
2022/09/14 11:12:42;;;;;;;10.10;4.10;;;;;;;23.69;49.19;98005.09;106058;1274;97898;-64
2022/09/14 11:15:23;;;;;;;14.00;4.50;;;;;;;23.74;49.33;98012.48;106043;1274;113349;-64
2022/09/14 11:18:14;;;;;;;8.30;4.50;;;;;;;23.81;49.33;98007.17;105939;1274;95963;-65
2022/09/14 11:20:54;;;;;;;8.40;4.20;;;;;;;23.85;49.14;98003.52;106060;1274;108401;-64
2022/09/14 11:23:48;;;;;;;8.30;4.30;;;;;;;23.86;49.25;97997.71;106005;1274;97839;-65
2022/09/14 11:26:40;;;;;;;7.60;3.80;;;;;;;23.90;49.04;97995.95;106154;1274;97992;-66
2022/09/14 11:29:47;;;;;;;7.40;4.20;;;;;;;23.94;49.26;97991.27;106105;1274;111568;-66
2022/09/14 11:32:35;;;;;;;7.90;4.10;;;;;;;24.01;49.08;97985.20;106016;1274;96998;-65
2022/09/14 11:35:22;;;;;;;7.70;4.10;;;;;;;24.03;48.99;97979.57;106124;1274;108283;-63
2022/09/14 11:38:10;;;;;;;8.80;4.20;;;;;;;24.03;48.96;97975.55;106144;1274;97913;-65
2022/09/14 11:41:03;;;;;;;11.10;4.20;;;;;;;24.06;48.96;97966.52;106131;1274;97817;-65
2022/09/14 11:44:24;;;;;;;8.20;3.90;;;;;;;24.00;48.76;97968.08;106114;1274;112080;-65
2022/09/14 11:46:57;;;;;;;9.20;4.50;;;;;;;24.02;48.94;97961.94;106015;1274;97941;-64
2022/09/14 11:49:43;;;;;;;9.50;4.10;;;;;;;24.07;48.83;97961.88;106141;1274;107814;-67
2022/09/14 11:52:21;;;;;;;10.70;4.40;;;;;;;24.15;48.86;97956.56;106109;1274;95238;-66
2022/09/14 11:54:51;;;;;;;7.10;3.80;;;;;;;24.20;48.88;97957.19;106189;1274;98073;-67
2022/09/14 11:57:24;;;;;;;8.30;4.20;;;;;;;24.21;48.75;97954.87;106153;1274;111150;-63